Time,TemperatureF,DewpointF,PressureIn,WindDirection,WindDirectionDegrees,WindSpeedMPH,WindSpeedGustMPH,Humidity,HourlyPrecipIn,Conditions,Clouds,dailyrainin,SoftwareType,DateUTC
2013-08-28 00:01:00,70.9,70.0,29.94,SSW,198,0.0,5.0,97,0.45,,,0.73,meteohub,2013-08-28 04:01:00,
2013-08-28 00:05:00,70.9,70.0,29.94,SSW,198,0.0,5.0,97,0.46,,,0.73,meteohub,2013-08-28 04:05:00,
2013-08-28 00:06:00,70.9,70.0,29.94,SSW,198,0.0,5.0,97,0.46,,,0.73,meteohub,2013-08-28 04:06:00,
2013-08-28 00:07:00,70.9,70.0,29.94,SSW,198,0.0,5.0,97,0.46,,,0.73,meteohub,2013-08-28 04:07:00,
2013-08-28 00:12:00,70.9,70.0,29.94,SSW,198,0.0,5.0,97,0.46,,,0.82,meteohub,2013-08-28 04:12:00,
2013-08-28 00:15:00,70.9,70.0,29.94,SSW,198,0.0,1.0,97,0.43,,,0.82,meteohub,2013-08-28 04:15:00,
2013-08-28 00:20:00,70.9,70.0,29.93,South,186,13.0,13.0,97,0.43,,,0.82,meteohub,2013-08-28 04:20:00,
2013-08-28 00:25:00,70.9,70.0,29.93,SSW,193,1.0,1.0,97,0.43,,,0.89,meteohub,2013-08-28 04:25:00,
2013-08-28 00:31:00,70.9,70.0,29.93,SW,222,0.0,15.0,97,0.44,,,0.97,meteohub,2013-08-28 04:31:00,
2013-08-28 00:36:00,70.9,70.0,29.93,SW,221,0.0,15.0,97,0.45,,,0.97,meteohub,2013-08-28 04:36:00,
2013-08-28 00:41:00,70.9,70.0,29.92,SW,221,0.0,15.0,97,0.45,,,1.04,meteohub,2013-08-28 04:41:00,
2013-08-28 00:46:00,70.7,69.8,29.93,SW,221,0.0,5.0,97,0.44,,,1.04,meteohub,2013-08-28 04:46:00,
2013-08-28 00:52:00,70.7,70.2,29.92,SW,221,0.0,5.0,98,0.44,,,1.10,meteohub,2013-08-28 04:52:00,
2013-08-28 00:57:00,70.7,70.2,29.92,SW,221,0.0,2.0,98,0.44,,,1.10,meteohub,2013-08-28 04:57:00,
2013-08-28 01:02:00,70.7,70.2,29.92,SW,221,0.0,2.0,98,0.44,,,1.18,meteohub,2013-08-28 05:02:00,
2013-08-28 01:07:00,70.7,70.2,29.92,SW,217,0.0,4.0,98,0.43,,,1.18,meteohub,2013-08-28 05:07:00,
2013-08-28 01:12:00,70.7,70.2,29.92,SW,217,0.0,4.0,98,0.43,,,1.25,meteohub,2013-08-28 05:12:00,
2013-08-28 01:17:00,70.7,70.2,29.92,SW,217,0.0,4.0,98,0.43,,,1.25,meteohub,2013-08-28 05:17:00,
2013-08-28 01:22:00,70.9,70.3,29.92,SSW,196,0.0,4.0,98,0.43,,,1.31,meteohub,2013-08-28 05:22:00,
2013-08-28 01:28:00,71.1,70.5,29.92,SSW,209,0.0,6.0,98,0.41,,,1.31,meteohub,2013-08-28 05:28:00,
2013-08-28 01:33:00,71.1,70.5,29.92,WSW,239,0.0,6.0,98,0.41,,,1.37,meteohub,2013-08-28 05:33:00,
2013-08-28 01:38:00,71.1,70.5,29.92,SSW,205,3.0,8.0,98,0.40,,,1.37,meteohub,2013-08-28 05:38:00,
2013-08-28 01:44:00,71.1,70.5,29.92,SSW,193,2.0,8.0,98,0.39,,,1.43,meteohub,2013-08-28 05:44:00,
2013-08-28 01:49:00,71.1,70.5,29.92,SSW,193,0.0,6.0,98,0.39,,,1.43,meteohub,2013-08-28 05:49:00,
2013-08-28 01:54:00,71.1,70.5,29.92,SSW,211,0.0,6.0,98,0.37,,,1.50,meteohub,2013-08-28 05:54:00,
2013-08-28 01:59:00,71.1,70.5,29.92,SSW,211,0.0,6.0,98,0.37,,,1.50,meteohub,2013-08-28 05:59:00,
2013-08-28 02:05:00,71.1,70.5,29.92,SSW,211,0.0,6.0,98,0.37,,,1.55,meteohub,2013-08-28 06:05:00,
2013-08-28 02:10:00,71.1,70.5,29.92,SSW,211,0.0,3.0,98,0.37,,,1.55,meteohub,2013-08-28 06:10:00,
2013-08-28 02:15:00,71.1,70.5,29.92,SSW,211,0.0,2.0,98,0.35,,,1.60,meteohub,2013-08-28 06:15:00,
2013-08-28 02:20:00,71.1,70.5,29.91,SSW,211,0.0,2.0,98,0.35,,,1.65,meteohub,2013-08-28 06:20:00,
2013-08-28 02:26:00,71.1,70.5,29.91,SSW,211,1.0,2.0,98,0.33,,,1.65,meteohub,2013-08-28 06:26:00,
2013-08-28 02:31:00,71.1,70.5,29.91,SSW,211,0.0,2.0,98,0.33,,,1.71,meteohub,2013-08-28 06:31:00,
2013-08-28 02:36:00,71.1,70.5,29.91,SSW,211,0.0,1.0,98,0.32,,,1.71,meteohub,2013-08-28 06:36:00,
2013-08-28 02:42:00,71.1,70.5,29.91,SSW,211,0.0,1.0,98,0.32,,,1.75,meteohub,2013-08-28 06:42:00,
2013-08-28 02:47:00,71.1,70.5,29.90,SSW,211,2.0,2.0,98,0.30,,,1.75,meteohub,2013-08-28 06:47:00,
2013-08-28 02:52:00,70.9,70.3,29.89,SSW,211,0.0,1.0,98,0.30,,,1.78,meteohub,2013-08-28 06:52:00,
2013-08-28 02:57:00,70.9,70.3,29.89,SSW,211,0.0,4.0,98,0.27,,,1.78,meteohub,2013-08-28 06:57:00,
2013-08-28 03:02:00,70.9,70.3,29.89,SSW,211,0.0,4.0,98,0.27,,,1.81,meteohub,2013-08-28 07:02:00,
2013-08-28 03:07:00,70.9,70.3,29.89,SSW,211,0.0,3.0,98,0.25,,,1.81,meteohub,2013-08-28 07:07:00,
2013-08-28 03:12:00,70.9,70.3,29.89,SSW,211,0.0,3.0,98,0.25,,,1.84,meteohub,2013-08-28 07:12:00,
2013-08-28 03:18:00,70.9,70.3,29.89,SSW,211,0.0,3.0,98,0.22,,,1.84,meteohub,2013-08-28 07:18:00,
2013-08-28 03:41:00,70.9,70.3,29.90,SSW,205,4.0,4.0,98,0.14,,,1.86,meteohub,2013-08-28 07:41:00,
2013-08-28 03:46:00,70.9,70.3,29.90,SSW,200,1.0,7.0,98,0.10,,,1.86,meteohub,2013-08-28 07:46:00,
2013-08-28 03:52:00,70.7,70.2,29.90,SSW,198,5.0,7.0,98,0.10,,,1.88,meteohub,2013-08-28 07:52:00,
2013-08-28 03:57:00,70.7,70.2,29.90,SSW,194,0.0,7.0,98,0.09,,,1.88,meteohub,2013-08-28 07:57:00,
2013-08-28 04:02:00,70.7,70.2,29.90,SSW,194,0.0,7.0,98,0.09,,,1.90,meteohub,2013-08-28 08:02:00,
2013-08-28 04:08:00,70.7,70.2,29.90,SSW,213,3.0,5.0,98,0.07,,,1.90,meteohub,2013-08-28 08:08:00,
2013-08-28 04:13:00,70.7,70.2,29.90,SW,214,0.0,5.0,98,0.07,,,1.91,meteohub,2013-08-28 08:13:00,
2013-08-28 04:18:00,70.7,70.2,29.90,SSW,204,2.0,5.0,98,0.07,,,1.91,meteohub,2013-08-28 08:18:00,
2013-08-28 04:24:00,70.9,70.3,29.89,South,184,1.0,5.0,98,0.09,,,1.93,meteohub,2013-08-28 08:24:00,
2013-08-28 04:29:00,70.7,70.2,29.89,South,186,0.0,4.0,98,0.09,,,1.93,meteohub,2013-08-28 08:29:00,
2013-08-28 04:34:00,70.7,70.2,29.88,South,190,3.0,5.0,98,0.10,,,1.96,meteohub,2013-08-28 08:34:00,
2013-08-28 04:40:00,70.9,70.3,29.88,SSW,196,0.0,5.0,98,0.10,,,1.96,meteohub,2013-08-28 08:40:00,
2013-08-28 04:45:00,70.7,70.2,29.88,SSW,200,0.0,4.0,98,0.13,,,1.98,meteohub,2013-08-28 08:45:00,
2013-08-28 04:50:00,70.9,70.3,29.88,SSW,209,1.0,4.0,98,0.13,,,1.98,meteohub,2013-08-28 08:50:00,
2013-08-28 04:55:00,70.9,70.3,29.88,South,187,0.0,4.0,98,0.11,,,2.00,meteohub,2013-08-28 08:55:00,
2013-08-28 05:01:00,70.9,70.3,29.88,South,186,0.0,6.0,98,0.11,,,2.00,meteohub,2013-08-28 09:01:00,
2013-08-28 05:06:00,70.9,70.3,29.88,South,186,0.0,6.0,98,0.11,,,2.00,meteohub,2013-08-28 09:06:00,
2013-08-28 05:12:00,70.9,70.3,29.88,South,187,0.0,4.0,98,0.09,,,2.00,meteohub,2013-08-28 09:12:00,
2013-08-28 05:17:00,70.9,70.3,29.88,South,186,2.0,4.0,98,0.09,,,2.00,meteohub,2013-08-28 09:17:00,
2013-08-28 05:22:00,70.9,70.3,29.88,SSW,197,1.0,3.0,98,0.07,,,2.00,meteohub,2013-08-28 09:22:00,
2013-08-28 05:27:00,70.7,70.2,29.87,SSW,197,0.0,3.0,98,0.07,,,2.00,meteohub,2013-08-28 09:27:00,
2013-08-28 05:32:00,70.7,70.2,29.88,SSW,197,2.0,3.0,98,0.07,,,2.00,meteohub,2013-08-28 09:32:00,
2013-08-28 05:34:00,70.7,70.2,29.88,SSW,194,2.0,3.0,98,0.07,,,2.00,meteohub,2013-08-28 09:34:00,
2013-08-28 05:39:00,70.9,70.3,29.88,SSW,196,2.0,4.0,98,0.03,,,2.00,meteohub,2013-08-28 09:39:00,
2013-08-28 05:44:00,70.7,70.2,29.88,SSW,196,2.0,4.0,98,0.03,,,2.00,meteohub,2013-08-28 09:44:00,
2013-08-28 05:50:00,70.7,70.2,29.87,SSW,196,0.0,4.0,98,0.00,,,2.00,meteohub,2013-08-28 09:50:00,
2013-08-28 05:55:00,70.5,70.0,29.87,SSW,196,0.0,5.0,98,0.00,,,2.00,meteohub,2013-08-28 09:55:00,
2013-08-28 06:00:00,70.5,70.0,29.87,SSW,202,0.0,3.0,98,0.00,,,2.00,meteohub,2013-08-28 10:00:00,
2013-08-28 06:05:00,70.3,69.8,29.87,SSW,213,0.0,3.0,98,0.00,,,2.00,meteohub,2013-08-28 10:05:00,
2013-08-28 06:11:00,70.3,69.8,29.86,SW,217,4.0,4.0,98,0.00,,,2.00,meteohub,2013-08-28 10:11:00,
2013-08-28 06:16:00,70.2,69.6,29.86,SW,220,0.0,3.0,98,0.00,,,2.00,meteohub,2013-08-28 10:16:00,
2013-08-28 06:21:00,70.2,69.6,29.87,SW,220,0.0,7.0,98,0.00,,,2.00,meteohub,2013-08-28 10:21:00,
2013-08-28 06:27:00,70.2,69.6,29.87,SSW,212,5.0,7.0,98,0.00,,,2.01,meteohub,2013-08-28 10:27:00,
2013-08-28 06:32:00,70.2,69.6,29.86,SSW,213,0.0,7.0,98,0.00,,,2.01,meteohub,2013-08-28 10:32:00,
2013-08-28 06:37:00,70.2,69.6,29.86,SSW,213,4.0,5.0,98,0.03,,,2.01,meteohub,2013-08-28 10:37:00,
2013-08-28 06:42:00,70.0,69.4,29.87,WSW,247,0.0,5.0,98,0.03,,,2.01,meteohub,2013-08-28 10:42:00,
2013-08-28 06:47:00,70.2,69.6,29.86,SW,224,0.0,5.0,98,0.03,,,2.01,meteohub,2013-08-28 10:47:00,
2013-08-28 06:52:00,70.2,69.6,29.86,SW,217,0.0,5.0,98,0.07,,,2.06,meteohub,2013-08-28 10:52:00,
2013-08-28 06:57:00,70.0,69.4,29.86,South,188,0.0,7.0,98,0.07,,,2.06,meteohub,2013-08-28 10:57:00,
2013-08-28 07:02:00,70.0,69.4,29.86,SW,227,0.0,7.0,98,0.07,,,2.07,meteohub,2013-08-28 11:02:00,
2013-08-28 07:07:00,70.0,69.4,29.86,SW,227,0.0,7.0,98,0.07,,,2.07,meteohub,2013-08-28 11:07:00,
2013-08-28 07:12:00,70.0,69.4,29.86,SW,227,0.0,4.0,98,0.07,,,2.07,meteohub,2013-08-28 11:12:00,
2013-08-28 07:17:00,70.0,69.4,29.86,SW,227,0.0,4.0,98,0.07,,,2.07,meteohub,2013-08-28 11:17:00,
2013-08-28 07:22:00,70.0,69.4,29.86,SW,227,1.0,4.0,98,0.06,,,2.07,meteohub,2013-08-28 11:22:00,
2013-08-28 07:28:00,70.0,69.4,29.86,SW,227,0.0,4.0,98,0.06,,,2.07,meteohub,2013-08-28 11:28:00,
2013-08-28 07:33:00,70.2,69.6,29.86,SSW,204,0.0,4.0,98,0.06,,,2.07,meteohub,2013-08-28 11:33:00,
2013-08-28 07:38:00,70.0,69.4,29.86,SSW,204,0.0,4.0,98,0.03,,,2.07,meteohub,2013-08-28 11:38:00,
2013-08-28 07:43:00,70.0,69.4,29.86,SSW,204,0.0,4.0,98,0.03,,,2.07,meteohub,2013-08-28 11:43:00,
2013-08-28 07:49:00,70.0,69.4,29.86,SSW,204,0.0,4.0,98,0.03,,,2.07,meteohub,2013-08-28 11:49:00,
2013-08-28 07:54:00,70.0,69.4,29.86,SSW,201,2.0,2.0,98,0.00,,,2.07,meteohub,2013-08-28 11:54:00,
2013-08-28 08:37:00,70.2,69.6,29.86,SSW,200,0.0,3.0,98,0.00,,,2.07,meteohub,2013-08-28 12:37:00,
2013-08-28 08:42:00,70.2,69.6,29.86,SSW,211,0.0,3.0,98,0.00,,,2.07,meteohub,2013-08-28 12:42:00,
2013-08-28 08:47:00,70.2,69.6,29.86,SSW,210,0.0,5.0,98,0.00,,,2.07,meteohub,2013-08-28 12:47:00,
2013-08-28 08:53:00,70.2,69.6,29.85,SSW,210,1.0,5.0,98,0.00,,,2.08,meteohub,2013-08-28 12:53:00,
2013-08-28 08:58:00,70.2,69.6,29.85,SSW,202,3.0,8.0,98,0.01,,,2.08,meteohub,2013-08-28 12:58:00,
2013-08-28 09:04:00,70.2,69.6,29.85,SSW,194,2.0,8.0,98,0.01,,,2.08,meteohub,2013-08-28 13:04:00,
2013-08-28 09:09:00,70.3,69.8,29.85,SSW,209,4.0,8.0,98,0.01,,,2.08,meteohub,2013-08-28 13:09:00,
2013-08-28 09:14:00,70.3,69.8,29.85,SSW,194,5.0,10.0,98,0.02,,,2.09,meteohub,2013-08-28 13:14:00,
2013-08-28 09:20:00,70.5,70.0,29.85,SSW,201,0.0,10.0,98,0.02,,,2.09,meteohub,2013-08-28 13:20:00,
2013-08-28 09:25:00,70.5,70.0,29.85,SSW,198,4.0,10.0,98,0.02,,,2.09,meteohub,2013-08-28 13:25:00,
2013-08-28 09:30:00,70.5,70.0,29.85,SSW,210,0.0,10.0,98,0.02,,,2.09,meteohub,2013-08-28 13:30:00,
2013-08-28 09:36:00,70.5,70.0,29.85,South,188,4.0,7.0,98,0.02,,,2.09,meteohub,2013-08-28 13:36:00,
2013-08-28 09:41:00,70.5,70.0,29.85,South,190,3.0,7.0,98,0.02,,,2.09,meteohub,2013-08-28 13:41:00,
2013-08-28 09:46:00,70.7,70.2,29.85,South,184,0.0,7.0,98,0.01,,,2.09,meteohub,2013-08-28 13:46:00,
2013-08-28 09:52:00,70.7,70.2,29.85,South,184,0.0,7.0,98,0.01,,,2.09,meteohub,2013-08-28 13:52:00,
2013-08-28 09:57:00,70.7,70.2,29.85,SSW,203,0.0,6.0,98,0.01,,,2.09,meteohub,2013-08-28 13:57:00,
2013-08-28 10:02:00,70.9,70.3,29.85,SSW,203,0.0,6.0,98,0.01,,,2.09,meteohub,2013-08-28 14:02:00,
2013-08-28 10:07:00,70.9,70.3,29.85,SSW,203,0.0,4.0,98,0.01,,,2.09,meteohub,2013-08-28 14:07:00,
2013-08-28 10:12:00,71.1,70.5,29.85,SSW,203,0.0,4.0,98,0.01,,,2.09,meteohub,2013-08-28 14:12:00,
2013-08-28 10:17:00,71.1,70.5,29.85,SSW,203,3.0,4.0,98,0.00,,,2.09,meteohub,2013-08-28 14:17:00,
2013-08-28 10:22:00,71.2,70.7,29.85,SSW,203,0.0,4.0,98,0.00,,,2.09,meteohub,2013-08-28 14:22:00,
2013-08-28 10:27:00,71.2,70.7,29.85,SSW,203,3.0,5.0,98,0.00,,,2.09,meteohub,2013-08-28 14:27:00,
2013-08-28 10:33:00,71.4,70.9,29.84,SW,229,0.0,5.0,98,0.00,,,2.09,meteohub,2013-08-28 14:33:00,
2013-08-28 10:38:00,71.4,70.9,29.85,SW,229,0.0,5.0,98,0.00,,,2.09,meteohub,2013-08-28 14:38:00,
2013-08-28 10:43:00,71.6,71.1,29.85,SW,229,0.0,5.0,98,0.00,,,2.09,meteohub,2013-08-28 14:43:00,
2013-08-28 10:49:00,71.8,71.4,29.84,South,190,0.0,4.0,99,0.00,,,2.09,meteohub,2013-08-28 14:49:00,
2013-08-28 10:54:00,72.0,71.6,29.85,South,190,0.0,4.0,99,0.00,,,2.09,meteohub,2013-08-28 14:54:00,
2013-08-28 10:59:00,72.0,71.6,29.84,South,190,0.0,4.0,99,0.00,,,2.09,meteohub,2013-08-28 14:59:00,
2013-08-28 11:04:00,72.1,71.6,29.85,South,190,0.0,4.0,98,0.00,,,2.09,meteohub,2013-08-28 15:04:00,
2013-08-28 11:09:00,72.1,71.6,29.85,South,190,0.0,3.0,98,0.00,,,2.09,meteohub,2013-08-28 15:09:00,
2013-08-28 11:15:00,72.5,72.1,29.85,South,190,0.0,1.0,99,0.00,,,2.09,meteohub,2013-08-28 15:15:00,
2013-08-28 11:20:00,72.7,72.3,29.85,South,190,0.0,1.0,99,0.00,,,2.09,meteohub,2013-08-28 15:20:00,
2013-08-28 11:25:00,72.9,72.3,29.85,South,190,2.0,3.0,98,0.00,,,2.09,meteohub,2013-08-28 15:25:00,
2013-08-28 11:31:00,73.0,72.5,29.85,South,190,0.0,3.0,98,0.00,,,2.09,meteohub,2013-08-28 15:31:00,
2013-08-28 11:36:00,73.2,72.9,29.84,South,190,1.0,4.0,99,0.00,,,2.09,meteohub,2013-08-28 15:36:00,
2013-08-28 11:41:00,73.2,72.9,29.84,South,190,0.0,4.0,99,0.00,,,2.09,meteohub,2013-08-28 15:41:00,
2013-08-28 11:47:00,73.4,73.0,29.84,South,190,0.0,2.0,99,0.00,,,2.09,meteohub,2013-08-28 15:47:00,
2013-08-28 11:52:00,73.6,73.0,29.84,South,190,0.0,2.0,98,0.00,,,2.09,meteohub,2013-08-28 15:52:00,
2013-08-28 11:57:00,73.6,73.0,29.84,SW,221,0.0,0.0,98,0.00,,,2.09,meteohub,2013-08-28 15:57:00,
2013-08-28 12:02:00,73.6,73.0,29.84,SW,221,0.0,0.0,98,0.00,,,2.09,meteohub,2013-08-28 16:02:00,
2013-08-28 12:07:00,73.6,73.0,29.84,South,169,0.0,5.0,98,0.00,,,2.09,meteohub,2013-08-28 16:07:00,
2013-08-28 12:12:00,73.8,73.2,29.84,South,169,2.0,5.0,98,0.00,,,2.09,meteohub,2013-08-28 16:12:00,
2013-08-28 12:17:00,73.8,73.4,29.84,South,188,0.0,5.0,99,0.00,,,2.09,meteohub,2013-08-28 16:17:00,
2013-08-28 12:23:00,74.1,73.6,29.84,South,188,0.0,5.0,98,0.00,,,2.09,meteohub,2013-08-28 16:23:00,
2013-08-28 12:28:00,74.1,73.6,29.85,SW,215,0.0,4.0,98,0.00,,,2.09,meteohub,2013-08-28 16:28:00,
2013-08-28 12:34:00,74.1,73.6,29.84,SW,215,0.0,4.0,98,0.00,,,2.09,meteohub,2013-08-28 16:34:00,
2013-08-28 12:39:00,74.3,73.8,29.85,SW,215,0.0,3.0,98,0.00,,,2.09,meteohub,2013-08-28 16:39:00,
2013-08-28 12:44:00,74.5,73.9,29.85,SW,215,0.0,3.0,98,0.00,,,2.09,meteohub,2013-08-28 16:44:00,
2013-08-28 12:50:00,74.8,74.3,29.85,SW,215,0.0,1.0,98,0.00,,,2.09,meteohub,2013-08-28 16:50:00,
2013-08-28 12:55:00,74.8,74.3,29.84,SSW,201,0.0,1.0,98,0.00,,,2.09,meteohub,2013-08-28 16:55:00,
2013-08-28 13:00:00,74.7,73.8,29.84,South,190,0.0,1.0,97,0.00,,,2.09,meteohub,2013-08-28 17:00:00,
2013-08-28 13:06:00,74.8,73.6,29.84,SSW,194,0.0,5.0,96,0.00,,,2.09,meteohub,2013-08-28 17:06:00,
2013-08-28 13:11:00,75.0,73.8,29.84,SSW,194,0.0,5.0,96,0.00,,,2.09,meteohub,2013-08-28 17:11:00,
2013-08-28 13:16:00,75.4,73.8,29.85,SSW,194,0.0,2.0,95,0.00,,,2.09,meteohub,2013-08-28 17:16:00,
2013-08-28 13:21:00,75.4,73.6,29.84,SSW,194,0.0,2.0,94,0.00,,,2.09,meteohub,2013-08-28 17:21:00,
2013-08-28 13:27:00,75.9,73.8,29.84,NNW,327,1.0,3.0,93,0.00,,,2.09,meteohub,2013-08-28 17:27:00,
2013-08-28 13:32:00,76.6,74.5,29.85,SSE,156,0.0,3.0,93,0.00,,,2.09,meteohub,2013-08-28 17:32:00,
2013-08-28 13:37:00,76.8,73.9,29.85,South,186,0.0,4.0,91,0.00,,,2.09,meteohub,2013-08-28 17:37:00,
2013-08-28 13:42:00,77.2,74.3,29.85,WNW,291,0.0,4.0,91,0.00,,,2.09,meteohub,2013-08-28 17:42:00,
2013-08-28 13:47:00,77.2,73.9,29.85,WNW,291,0.0,4.0,90,0.00,,,2.09,meteohub,2013-08-28 17:47:00,
2013-08-28 13:52:00,76.8,73.0,29.85,NNW,344,6.0,6.0,88,0.00,,,2.09,meteohub,2013-08-28 17:52:00,
2013-08-28 13:58:00,75.6,72.1,29.86,ENE,62,2.0,11.0,89,0.01,,,2.09,meteohub,2013-08-28 17:58:00,
2013-08-28 14:03:00,74.5,71.4,29.86,East,82,4.0,11.0,90,0.01,,,2.10,meteohub,2013-08-28 18:03:00,
2013-08-28 14:08:00,73.8,70.9,29.87,NNE,21,2.0,13.0,91,0.01,,,2.10,meteohub,2013-08-28 18:08:00,
2013-08-28 14:14:00,73.4,70.9,29.87,ENE,62,3.0,13.0,92,0.01,,,2.10,meteohub,2013-08-28 18:14:00,
2013-08-28 14:19:00,73.0,70.5,29.87,East,79,3.0,8.0,92,0.01,,,2.10,meteohub,2013-08-28 18:19:00,
2013-08-28 14:25:00,73.0,70.5,29.87,ENE,75,3.0,8.0,92,0.01,,,2.10,meteohub,2013-08-28 18:25:00,
2013-08-28 14:30:00,72.9,70.3,29.88,NE,40,0.0,8.0,92,0.01,,,2.10,meteohub,2013-08-28 18:30:00,
2013-08-28 14:35:00,73.0,70.9,29.88,ENE,74,3.0,11.0,93,0.01,,,2.10,meteohub,2013-08-28 18:35:00,
2013-08-28 14:41:00,73.0,70.5,29.88,ENE,64,2.0,11.0,92,0.01,,,2.10,meteohub,2013-08-28 18:41:00,
2013-08-28 14:46:00,73.2,70.7,29.88,ENE,63,0.0,7.0,92,0.01,,,2.10,meteohub,2013-08-28 18:46:00,
2013-08-28 14:51:00,73.4,70.9,29.88,NE,43,2.0,7.0,92,0.01,,,2.10,meteohub,2013-08-28 18:51:00,
2013-08-28 14:57:00,73.6,71.1,29.89,NE,55,0.0,8.0,92,0.00,,,2.10,meteohub,2013-08-28 18:57:00,
2013-08-28 15:02:00,73.6,70.7,29.89,ENE,69,4.0,8.0,91,0.00,,,2.10,meteohub,2013-08-28 19:02:00,
2013-08-28 15:07:00,73.6,71.1,29.89,NNE,28,4.0,7.0,92,0.00,,,2.10,meteohub,2013-08-28 19:07:00,
2013-08-28 15:12:00,73.6,71.1,29.89,NE,53,4.0,7.0,92,0.00,,,2.10,meteohub,2013-08-28 19:12:00,
2013-08-28 15:17:00,73.6,71.1,29.89,NNE,32,2.0,7.0,92,0.00,,,2.10,meteohub,2013-08-28 19:17:00,
2013-08-28 15:22:00,73.6,71.4,29.90,NE,50,1.0,7.0,93,0.00,,,2.10,meteohub,2013-08-28 19:22:00,
2013-08-28 15:28:00,73.6,71.4,29.90,NE,47,0.0,6.0,93,0.00,,,2.10,meteohub,2013-08-28 19:28:00,
2013-08-28 15:33:00,73.6,71.4,29.90,NNE,17,2.0,6.0,93,0.00,,,2.10,meteohub,2013-08-28 19:33:00,
2013-08-28 15:38:00,73.6,71.4,29.90,NNW,347,0.0,6.0,93,0.00,,,2.10,meteohub,2013-08-28 19:38:00,
2013-08-28 15:44:00,73.6,71.8,29.90,NNW,348,0.0,6.0,94,0.00,,,2.10,meteohub,2013-08-28 19:44:00,
2013-08-28 15:49:00,73.6,71.8,29.90,NE,38,2.0,6.0,94,0.00,,,2.10,meteohub,2013-08-28 19:49:00,
2013-08-28 15:54:00,73.6,71.8,29.90,NNW,330,0.0,6.0,94,0.00,,,2.10,meteohub,2013-08-28 19:54:00,
2013-08-28 16:00:00,73.6,71.8,29.90,NE,37,2.0,6.0,94,0.00,,,2.10,meteohub,2013-08-28 20:00:00,
2013-08-28 16:05:00,73.4,71.6,29.90,ENE,69,3.0,6.0,94,0.00,,,2.10,meteohub,2013-08-28 20:05:00,
2013-08-28 16:10:00,73.6,71.8,29.90,NE,44,3.0,6.0,94,0.00,,,2.10,meteohub,2013-08-28 20:10:00,
2013-08-28 16:16:00,73.6,71.8,29.90,NE,35,3.0,7.0,94,0.00,,,2.10,meteohub,2013-08-28 20:16:00,
2013-08-28 16:21:00,73.9,72.1,29.90,NE,51,5.0,7.0,94,0.00,,,2.10,meteohub,2013-08-28 20:21:00,
2013-08-28 16:26:00,74.1,72.0,29.90,NE,53,0.0,8.0,93,0.00,,,2.10,meteohub,2013-08-28 20:26:00,
2013-08-28 16:32:00,74.3,72.1,29.90,North,5,3.0,8.0,93,0.00,,,2.10,meteohub,2013-08-28 20:32:00,
2013-08-28 16:37:00,74.3,71.8,29.90,ENE,59,4.0,7.0,92,0.00,,,2.10,meteohub,2013-08-28 20:37:00,
2013-08-28 16:42:00,74.7,72.1,29.91,NE,42,0.0,7.0,92,0.00,,,2.10,meteohub,2013-08-28 20:42:00,
2013-08-28 16:47:00,75.0,72.1,29.91,NE,42,6.0,10.0,91,0.00,,,2.10,meteohub,2013-08-28 20:47:00,
2013-08-28 16:53:00,75.2,72.1,29.91,NE,50,0.0,10.0,90,0.00,,,2.10,meteohub,2013-08-28 20:53:00,
2013-08-28 16:58:00,75.2,71.4,29.91,NNE,29,4.0,8.0,88,0.00,,,2.10,meteohub,2013-08-28 20:58:00,
2013-08-28 17:03:00,75.0,71.2,29.91,NNE,30,3.0,8.0,88,0.00,,,2.10,meteohub,2013-08-28 21:03:00,
2013-08-28 17:08:00,75.0,71.6,29.91,NNE,17,0.0,10.0,89,0.00,,,2.10,meteohub,2013-08-28 21:08:00,
2013-08-28 17:14:00,75.4,72.0,29.91,NNE,30,0.0,10.0,89,0.00,,,2.10,meteohub,2013-08-28 21:14:00,
2013-08-28 17:19:00,75.4,71.6,29.91,NNE,23,0.0,9.0,88,0.00,,,2.10,meteohub,2013-08-28 21:19:00,
2013-08-28 17:24:00,75.6,71.8,29.91,NNW,342,2.0,9.0,88,0.00,,,2.10,meteohub,2013-08-28 21:24:00,
2013-08-28 17:30:00,75.7,71.6,29.91,NE,48,5.0,7.0,87,0.00,,,2.10,meteohub,2013-08-28 21:30:00,
2013-08-28 17:35:00,75.7,71.2,29.91,North,10,3.0,9.0,86,0.00,,,2.10,meteohub,2013-08-28 21:35:00,
2013-08-28 17:40:00,75.7,71.2,29.92,NE,49,5.0,9.0,86,0.00,,,2.10,meteohub,2013-08-28 21:40:00,
2013-08-28 17:46:00,75.6,71.1,29.92,NE,36,3.0,10.0,86,0.00,,,2.10,meteohub,2013-08-28 21:46:00,
2013-08-28 17:51:00,75.4,70.9,29.92,NNW,333,4.0,10.0,86,0.00,,,2.10,meteohub,2013-08-28 21:51:00,
2013-08-28 17:56:00,75.0,70.9,29.92,ENE,65,4.0,8.0,87,0.00,,,2.10,meteohub,2013-08-28 21:56:00,
2013-08-28 18:02:00,74.8,70.7,29.93,NNW,341,2.0,8.0,87,0.00,,,2.10,meteohub,2013-08-28 22:02:00,
2013-08-28 18:07:00,74.7,70.9,29.93,ENE,66,5.0,7.0,88,0.00,,,2.10,meteohub,2013-08-28 22:07:00,
2013-08-28 18:12:00,74.7,70.9,29.93,NNW,346,1.0,7.0,88,0.00,,,2.10,meteohub,2013-08-28 22:12:00,
2013-08-28 18:17:00,74.7,71.2,29.93,NNE,22,0.0,7.0,89,0.00,,,2.10,meteohub,2013-08-28 22:17:00,
2013-08-28 18:22:00,74.5,71.1,29.93,NE,51,3.0,7.0,89,0.00,,,2.10,meteohub,2013-08-28 22:22:00,
2013-08-28 18:27:00,74.5,71.1,29.93,East,84,0.0,7.0,89,0.00,,,2.10,meteohub,2013-08-28 22:27:00,
2013-08-28 18:32:00,74.5,71.1,29.93,NNE,22,0.0,6.0,89,0.00,,,2.10,meteohub,2013-08-28 22:32:00,
2013-08-28 18:37:00,74.3,71.2,29.93,NNW,330,2.0,6.0,90,0.00,,,2.10,meteohub,2013-08-28 22:37:00,
2013-08-28 18:42:00,74.1,71.1,29.93,NE,34,1.0,6.0,90,0.00,,,2.10,meteohub,2013-08-28 22:42:00,
2013-08-28 18:47:00,74.1,71.1,29.92,NNE,22,0.0,6.0,90,0.00,,,2.10,meteohub,2013-08-28 22:47:00,
2013-08-28 18:52:00,74.1,71.2,29.92,NE,53,2.0,6.0,91,0.00,,,2.10,meteohub,2013-08-28 22:52:00,
2013-08-28 18:57:00,73.9,71.1,29.92,NNW,327,0.0,5.0,91,0.00,,,2.10,meteohub,2013-08-28 22:57:00,
2013-08-28 19:03:00,73.9,71.1,29.93,NNE,26,1.0,5.0,91,0.00,,,2.10,meteohub,2013-08-28 23:03:00,
2013-08-28 19:08:00,73.8,70.9,29.93,ENE,61,3.0,5.0,91,0.00,,,2.10,meteohub,2013-08-28 23:08:00,
2013-08-28 19:13:00,73.8,70.9,29.93,NNW,338,0.0,5.0,91,0.00,,,2.10,meteohub,2013-08-28 23:13:00,
2013-08-28 19:19:00,73.8,70.9,29.93,NNW,338,0.0,5.0,91,0.00,,,2.10,meteohub,2013-08-28 23:19:00,
2013-08-28 19:24:00,73.6,70.7,29.93,NNW,338,0.0,5.0,91,0.00,,,2.10,meteohub,2013-08-28 23:24:00,
2013-08-28 19:29:00,73.6,70.7,29.93,NNW,338,0.0,4.0,91,0.00,,,2.10,meteohub,2013-08-28 23:29:00,
2013-08-28 19:35:00,73.4,70.5,29.94,NNW,338,0.0,2.0,91,0.00,,,2.10,meteohub,2013-08-28 23:35:00,
2013-08-28 19:40:00,73.2,70.5,29.94,NNW,338,0.0,2.0,91,0.00,,,2.10,meteohub,2013-08-28 23:40:00,
2013-08-28 19:45:00,73.2,70.7,29.94,NNW,338,0.0,2.0,92,0.00,,,2.10,meteohub,2013-08-28 23:45:00,
2013-08-28 19:51:00,73.0,70.5,29.94,NNW,338,0.0,2.0,92,0.00,,,2.10,meteohub,2013-08-28 23:51:00,
2013-08-28 19:56:00,72.9,70.3,29.94,NNW,338,0.0,1.0,92,0.00,,,2.10,meteohub,2013-08-28 23:56:00,
2013-08-28 20:01:00,72.7,70.5,29.94,ENE,64,0.0,1.0,93,0.00,,,2.10,meteohub,2013-08-29 00:01:00,
2013-08-28 20:07:00,72.3,70.2,29.94,ENE,64,0.0,0.0,93,0.00,,,2.10,meteohub,2013-08-29 00:07:00,
2013-08-28 20:12:00,72.1,70.0,29.94,ENE,64,0.0,0.0,93,0.00,,,0.00,meteohub,2013-08-29 00:12:00,
2013-08-28 20:17:00,72.0,69.8,29.94,ENE,64,0.0,0.0,93,0.00,,,0.00,meteohub,2013-08-29 00:17:00,
2013-08-28 20:22:00,71.8,70.0,29.94,ENE,64,0.0,0.0,94,0.00,,,0.00,meteohub,2013-08-29 00:22:00,
2013-08-28 20:27:00,71.6,69.8,29.95,ENE,64,0.0,1.0,94,0.00,,,0.00,meteohub,2013-08-29 00:27:00,
2013-08-28 20:33:00,71.4,69.6,29.95,ENE,64,0.0,1.0,94,0.00,,,0.00,meteohub,2013-08-29 00:33:00,
2013-08-28 20:38:00,71.2,69.4,29.95,ENE,64,0.0,0.0,94,0.00,,,0.00,meteohub,2013-08-29 00:38:00,
2013-08-28 20:43:00,71.1,69.6,29.95,ENE,64,0.0,0.0,95,0.00,,,0.00,meteohub,2013-08-29 00:43:00,
2013-08-28 20:49:00,71.1,69.6,29.96,ENE,64,0.0,0.0,95,0.00,,,0.00,meteohub,2013-08-29 00:49:00,
2013-08-28 20:54:00,70.9,69.4,29.96,ENE,64,0.0,0.0,95,0.00,,,0.00,meteohub,2013-08-29 00:54:00,
2013-08-28 20:59:00,70.5,69.1,29.96,ENE,64,0.0,0.0,95,0.00,,,0.00,meteohub,2013-08-29 00:59:00,
2013-08-28 21:05:00,70.5,69.1,29.96,ENE,64,0.0,0.0,95,0.00,,,0.00,meteohub,2013-08-29 01:05:00,
2013-08-28 21:10:00,70.3,69.1,29.97,ENE,64,0.0,0.0,96,0.00,,,0.00,meteohub,2013-08-29 01:10:00,
2013-08-28 21:15:00,70.3,69.1,29.97,ENE,64,0.0,0.0,96,0.00,,,0.00,meteohub,2013-08-29 01:15:00,
2013-08-28 21:21:00,70.2,68.9,29.97,ENE,64,0.0,0.0,96,0.00,,,0.00,meteohub,2013-08-29 01:21:00,
2013-08-28 21:26:00,70.2,68.9,29.98,ENE,64,0.0,0.0,96,0.00,,,0.00,meteohub,2013-08-29 01:26:00,
2013-08-28 21:31:00,70.0,68.7,29.98,ENE,64,0.0,0.0,96,0.00,,,0.00,meteohub,2013-08-29 01:31:00,
2013-08-28 21:37:00,69.8,68.5,29.98,ENE,64,0.0,0.0,96,0.00,,,0.00,meteohub,2013-08-29 01:37:00,
2013-08-28 21:42:00,69.6,68.4,29.98,ENE,64,0.0,0.0,96,0.00,,,0.00,meteohub,2013-08-29 01:42:00,
2013-08-28 21:47:00,69.6,68.4,29.99,ENE,64,0.0,0.0,96,0.00,,,0.00,meteohub,2013-08-29 01:47:00,
2013-08-28 21:52:00,69.4,68.2,29.99,ENE,64,0.0,0.0,96,0.00,,,0.00,meteohub,2013-08-29 01:52:00,
2013-08-28 21:57:00,69.4,68.2,29.99,ENE,64,0.0,0.0,96,0.00,,,0.00,meteohub,2013-08-29 01:57:00,
2013-08-28 22:02:00,69.3,68.0,29.99,ENE,64,0.0,0.0,96,0.00,,,0.00,meteohub,2013-08-29 02:02:00,
2013-08-28 22:08:00,69.3,68.0,29.99,ENE,64,0.0,0.0,96,0.00,,,0.00,meteohub,2013-08-29 02:08:00,
2013-08-28 22:13:00,69.3,68.4,29.99,ENE,64,0.0,0.0,97,0.00,,,0.00,meteohub,2013-08-29 02:13:00,
2013-08-28 22:18:00,69.3,68.4,29.99,ENE,64,0.0,0.0,97,0.00,,,0.00,meteohub,2013-08-29 02:18:00,
2013-08-28 22:23:00,69.1,68.2,29.99,ENE,64,0.0,0.0,97,0.00,,,0.00,meteohub,2013-08-29 02:23:00,
2013-08-28 22:29:00,68.9,67.6,30.00,ENE,64,0.0,0.0,96,0.00,,,0.00,meteohub,2013-08-29 02:29:00,
2013-08-28 22:34:00,68.7,67.8,29.99,ENE,64,0.0,0.0,97,0.00,,,0.00,meteohub,2013-08-29 02:34:00,
2013-08-28 22:39:00,68.7,67.8,30.00,ENE,64,0.0,0.0,97,0.00,,,0.00,meteohub,2013-08-29 02:39:00,
2013-08-28 22:45:00,68.7,67.8,30.00,ENE,64,0.0,0.0,97,0.00,,,0.00,meteohub,2013-08-29 02:45:00,
2013-08-28 22:50:00,68.5,67.6,30.00,ENE,64,0.0,0.0,97,0.00,,,0.00,meteohub,2013-08-29 02:50:00,
2013-08-28 22:55:00,68.5,67.6,30.00,ENE,64,0.0,0.0,97,0.00,,,0.00,meteohub,2013-08-29 02:55:00,
2013-08-28 23:01:00,68.5,67.6,30.00,ENE,64,0.0,0.0,97,0.00,,,0.00,meteohub,2013-08-29 03:01:00,
2013-08-28 23:06:00,68.7,67.8,30.00,ENE,64,0.0,0.0,97,0.00,,,0.00,meteohub,2013-08-29 03:06:00,
2013-08-28 23:11:00,68.5,67.6,30.00,ENE,64,0.0,0.0,97,0.00,,,0.00,meteohub,2013-08-29 03:11:00,
2013-08-28 23:17:00,68.5,67.6,30.00,ENE,64,0.0,0.0,97,0.00,,,0.00,meteohub,2013-08-29 03:17:00,
2013-08-28 23:22:00,68.5,67.6,30.00,ENE,64,0.0,0.0,97,0.00,,,0.00,meteohub,2013-08-29 03:22:00,
2013-08-28 23:27:00,68.5,67.6,30.00,ENE,64,0.0,0.0,97,0.00,,,0.00,meteohub,2013-08-29 03:27:00,
2013-08-28 23:32:00,68.4,67.5,30.00,ENE,64,0.0,0.0,97,0.00,,,0.00,meteohub,2013-08-29 03:32:00,
2013-08-28 23:37:00,68.4,67.5,30.00,ENE,64,0.0,0.0,97,0.00,,,0.00,meteohub,2013-08-29 03:37:00,
2013-08-28 23:42:00,68.4,67.5,30.00,ENE,64,0.0,0.0,97,0.00,,,0.00,meteohub,2013-08-29 03:42:00,
2013-08-28 23:48:00,68.5,67.6,30.00,ENE,64,0.0,0.0,97,0.00,,,0.00,meteohub,2013-08-29 03:48:00,
2013-08-28 23:53:00,68.5,68.0,30.00,ENE,64,0.0,0.0,98,0.00,,,0.00,meteohub,2013-08-29 03:53:00,
2013-08-28 23:58:00,68.5,68.0,30.00,ENE,64,0.0,0.0,98,0.00,,,0.00,meteohub,2013-08-29 03:58:00,